Time;durP1;ratioP1;P1;durP2;ratioP2;P2;SDS_P1;SDS_P2;PMS_P1;PMS_P2;Temp;Humidity;BMP_temperature;BMP_pressure;BME280_temperature;BME280_humidity;BME280_pressure;Samples;Min_cycle;Max_cycle;Signal;HPM_P1;HPM_P2
2023/04/14 00:00:52;;;;;;;10.50;8.40;;;;;;;12.39;70.39;99287.50;105740;1253;66700;-71
2023/04/14 00:03:22;;;;;;;14.10;9.40;;;;;;;12.38;70.40;99288.93;105682;1253;60581;-72
2023/04/14 00:05:52;;;;;;;10.00;8.50;;;;;;;12.39;70.44;99290.52;105491;1253;64998;-71
2023/04/14 00:08:22;;;;;;;12.30;8.30;;;;;;;12.38;70.30;99291.77;105868;1253;60342;-70
2023/04/14 00:10:51;;;;;;;9.50;8.20;;;;;;;12.38;70.39;99293.69;105567;1253;60466;-70
2023/04/14 00:13:19;;;;;;;10.90;8.80;;;;;;;12.38;70.39;99295.55;105817;1256;66534;-70
2023/04/14 00:15:48;;;;;;;12.80;8.60;;;;;;;12.37;70.37;99296.98;105775;1253;61065;-70
2023/04/14 00:18:18;;;;;;;13.70;8.60;;;;;;;12.37;70.34;99299.82;105822;1253;65545;-71
2023/04/14 00:20:47;;;;;;;13.10;8.70;;;;;;;12.36;70.37;99299.41;105519;1253;60479;-70
2023/04/14 00:23:15;;;;;;;10.90;8.40;;;;;;;12.35;70.33;99297.91;105742;1253;60491;-69
2023/04/14 00:25:44;;;;;;;12.10;8.60;;;;;;;12.35;70.26;99297.54;105628;1253;66605;-69
2023/04/14 00:28:12;;;;;;;9.80;7.90;;;;;;;12.35;70.37;99297.57;105859;1253;60314;-70
2023/04/14 00:30:45;;;;;;;;;;;;;;;12.33;70.33;99298.42;105737;1253;65544;-70
2023/04/14 00:33:15;;;;;;;13.30;8.20;;;;;;;12.32;70.40;99302.23;105773;1252;60421;-70
2023/04/14 00:35:44;;;;;;;9.90;7.80;;;;;;;12.32;70.32;99304.89;105886;1252;60423;-70
2023/04/14 00:38:12;;;;;;;12.70;8.10;;;;;;;12.32;70.32;99310.54;105648;1260;66903;-70
2023/04/14 00:40:42;;;;;;;9.70;8.10;;;;;;;12.32;70.25;99308.65;105676;1253;60511;-68
2023/04/14 00:43:10;;;;;;;9.90;8.20;;;;;;;12.31;70.22;99312.98;105812;1252;65676;-70
2023/04/14 00:45:42;;;;;;;11.30;8.20;;;;;;;12.30;70.26;99308.32;105754;1253;60419;-70
2023/04/14 00:48:14;;;;;;;10.90;8.30;;;;;;;12.28;70.22;99309.20;105708;1253;60940;-70
2023/04/14 00:50:43;;;;;;;11.00;7.60;;;;;;;12.29;70.14;99310.04;105405;1253;342460;-70
2023/04/14 00:53:11;;;;;;;10.80;7.50;;;;;;;12.28;70.14;99309.57;105878;1253;60333;-70
2023/04/14 00:55:41;;;;;;;12.00;7.90;;;;;;;12.29;70.07;99311.95;105689;1253;65311;-70
2023/04/14 00:58:10;;;;;;;10.30;8.00;;;;;;;12.30;69.96;99317.52;105536;1253;60977;-72
2023/04/14 01:00:39;;;;;;;10.20;7.70;;;;;;;12.26;70.01;99313.83;105622;1253;60464;-70
2023/04/14 01:03:11;;;;;;;10.60;7.80;;;;;;;12.24;70.10;99314.90;105783;1255;66685;-70
2023/04/14 01:05:40;;;;;;;8.90;7.40;;;;;;;12.24;70.08;99316.38;105676;1257;60315;-70
2023/04/14 01:08:09;;;;;;;10.60;8.10;;;;;;;12.22;70.01;99311.45;105647;1253;66608;-70
2023/04/14 01:10:40;;;;;;;12.10;8.40;;;;;;;12.21;70.14;99310.36;105544;1256;60432;-70
2023/04/14 01:13:19;;;;;;;9.70;8.40;;;;;;;12.19;70.08;99308.60;105647;1258;60435;-70
2023/04/14 01:15:59;;;;;;;10.80;7.40;;;;;;;12.18;70.06;99307.80;105497;1253;66488;-69
2023/04/14 01:18:39;;;;;;;9.60;7.60;;;;;;;12.19;70.00;99309.34;105495;1260;60377;-70
2023/04/14 01:21:10;;;;;;;10.50;7.70;;;;;;;12.16;69.95;99310.63;105488;1254;65383;-69
2023/04/14 01:23:41;;;;;;;9.20;7.80;;;;;;;12.16;70.04;99311.74;105589;1253;60353;-69
2023/04/14 01:26:27;;;;;;;11.50;8.10;;;;;;;12.15;70.07;99310.02;105696;1253;60490;-69
2023/04/14 01:29:41;;;;;;;9.50;7.90;;;;;;;12.15;70.03;99310.21;105656;1253;65754;-68
2023/04/14 01:32:10;;;;;;;10.00;7.80;;;;;;;12.15;70.00;99312.20;105250;1259;60447;-72
2023/04/14 01:34:45;;;;;;;12.00;7.90;;;;;;;12.15;69.91;99310.78;105881;1254;65583;-71
2023/04/14 01:37:18;;;;;;;13.00;8.20;;;;;;;12.14;69.87;99312.30;105639;1259;60438;-69
2023/04/14 01:39:53;;;;;;;10.50;8.50;;;;;;;12.14;69.96;99309.81;105571;1260;60456;-71
2023/04/14 01:42:25;;;;;;;9.60;7.70;;;;;;;12.14;69.91;99311.61;105816;1256;66737;-70
2023/04/14 01:44:55;;;;;;;10.00;7.20;;;;;;;12.13;69.83;99314.69;105780;1254;60341;-71
2023/04/14 01:47:24;;;;;;;10.10;8.00;;;;;;;12.12;69.84;99316.34;105632;1257;65581;-69
2023/04/14 01:49:52;;;;;;;11.80;8.40;;;;;;;12.11;69.90;99319.34;105591;1252;60551;-69
2023/04/14 01:52:21;;;;;;;11.90;8.20;;;;;;;12.10;69.88;99317.65;105636;1253;60947;-70
2023/04/14 01:54:50;;;;;;;11.40;8.10;;;;;;;12.10;69.94;99315.73;105508;1253;65730;-70
2023/04/14 01:57:21;;;;;;;10.90;8.20;;;;;;;12.10;70.01;99314.64;105735;1253;60636;-68
2023/04/14 01:59:51;;;;;;;9.90;8.70;;;;;;;12.09;69.92;99318.44;105853;1252;64516;-69
2023/04/14 02:02:20;;;;;;;12.70;8.60;;;;;;;12.08;69.91;99316.95;105499;1256;60493;-70
2023/04/14 02:04:49;;;;;;;8.80;7.90;;;;;;;12.08;69.95;99319.44;105619;1257;60433;-68
2023/04/14 02:07:20;;;;;;;10.10;8.30;;;;;;;12.08;69.94;99322.48;105664;1253;65730;-69
2023/04/14 02:09:48;;;;;;;9.60;8.10;;;;;;;12.07;69.89;99324.17;105713;1256;60448;-70
2023/04/14 02:12:19;;;;;;;9.90;8.10;;;;;;;12.06;69.92;99324.93;105654;1254;65522;-69
2023/04/14 02:14:50;;;;;;;9.40;8.40;;;;;;;12.04;69.82;99325.84;105638;1253;60434;-70
2023/04/14 02:17:20;;;;;;;9.40;8.50;;;;;;;12.01;69.94;99325.54;105692;1258;60448;-69
2023/04/14 02:19:49;;;;;;;9.20;8.10;;;;;;;11.99;69.95;99325.77;105878;1253;66552;-68
2023/04/14 02:22:18;;;;;;;10.50;8.40;;;;;;;11.97;69.94;99325.98;105817;1253;60610;-69
2023/04/14 02:24:47;;;;;;;8.90;7.90;;;;;;;11.95;70.06;99325.33;105625;1253;65750;-69
2023/04/14 02:27:17;;;;;;;8.60;7.70;;;;;;;11.93;70.09;99325.68;105725;1253;60432;-70
2023/04/14 02:29:51;;;;;;;8.70;7.60;;;;;;;11.92;70.08;99327.93;105713;1253;60611;-70
2023/04/14 02:32:24;;;;;;;9.00;7.70;;;;;;;11.91;70.02;99327.46;105508;1257;66795;-72
2023/04/14 02:35:05;;;;;;;8.10;7.30;;;;;;;11.89;69.98;99328.95;105636;1253;60438;-70
2023/04/14 02:37:36;;;;;;;8.40;7.50;;;;;;;11.88;69.91;99331.92;105661;1253;64627;-70
2023/04/14 02:40:19;;;;;;;8.50;7.70;;;;;;;11.88;69.85;99332.80;105687;1253;60531;-71
2023/04/14 02:42:55;;;;;;;8.30;7.50;;;;;;;11.87;69.75;99334.09;105642;1253;60550;-70
2023/04/14 02:45:25;;;;;;;7.70;6.90;;;;;;;11.87;69.75;99336.92;105761;1257;66759;-69
2023/04/14 02:47:58;;;;;;;7.80;6.60;;;;;;;11.86;69.75;99332.77;105610;1253;60637;-70
2023/04/14 02:50:27;;;;;;;9.30;6.70;;;;;;;11.85;69.72;99334.86;105616;1252;65466;-69
2023/04/14 02:53:11;;;;;;;9.80;7.00;;;;;;;11.85;69.76;99337.33;105806;1253;60458;-68
2023/04/14 02:55:41;;;;;;;9.30;7.10;;;;;;;11.84;69.67;99343.55;105638;1253;60493;-69
2023/04/14 02:58:10;;;;;;;7.30;6.60;;;;;;;11.85;69.68;99348.23;105653;1254;66742;-70
2023/04/14 03:00:39;;;;;;;8.20;7.00;;;;;;;11.85;69.75;99349.27;105880;1253;60440;-69
2023/04/14 03:03:10;;;;;;;8.30;6.90;;;;;;;11.84;69.70;99354.47;105581;1253;65554;-69
2023/04/14 03:05:40;;;;;;;8.40;6.70;;;;;;;11.85;69.68;99359.50;105671;1257;60528;-71
2023/04/14 03:08:10;;;;;;;7.60;6.90;;;;;;;11.88;69.62;99363.46;105865;1253;60442;-75
2023/04/14 03:10:41;;;;;;;8.10;7.10;;;;;;;11.88;69.54;99359.54;105529;1253;66529;-70
2023/04/14 03:13:12;;;;;;;9.60;7.80;;;;;;;11.86;69.57;99361.69;105775;1253;60371;-72
2023/04/14 03:15:42;;;;;;;8.10;7.00;;;;;;;11.86;69.58;99365.92;105787;1253;65620;-70
2023/04/14 03:18:11;;;;;;;8.00;7.20;;;;;;;11.86;69.51;99363.30;105803;1253;60358;-69
2023/04/14 03:20:42;;;;;;;8.50;7.60;;;;;;;11.86;69.51;99364.69;105634;1253;60579;-70
2023/04/14 03:23:11;;;;;;;8.00;7.20;;;;;;;11.86;69.49;99367.34;105668;1254;67001;-73
2023/04/14 03:25:45;;;;;;;8.80;7.60;;;;;;;11.85;69.46;99372.19;105737;1253;60545;-68
2023/04/14 03:28:18;;;;;;;8.10;7.30;;;;;;;11.84;69.57;99378.31;105664;1253;64484;-70
2023/04/14 03:38:26;;;;;;;9.20;7.90;;;;;;;11.85;69.51;99388.31;102644;1292;600281;-69
2023/04/14 03:40:58;;;;;;;8.70;7.80;;;;;;;11.82;69.58;99392.27;104692;1275;59258;-70
2023/04/14 03:43:28;;;;;;;8.10;7.20;;;;;;;11.83;69.56;99391.30;104594;1266;59315;-70
2023/04/14 03:46:04;;;;;;;8.70;7.60;;;;;;;11.82;69.54;99392.85;104657;1269;65173;-70
2023/04/14 03:48:34;;;;;;;9.00;7.40;;;;;;;11.81;69.57;99396.45;104574;1275;59744;-71
2023/04/14 03:51:03;;;;;;;8.20;7.40;;;;;;;11.82;69.67;99397.98;104619;1267;209868;-69
2023/04/14 03:53:33;;;;;;;8.10;7.30;;;;;;;11.82;69.53;99402.17;104813;1270;59234;-68
2023/04/14 03:56:02;;;;;;;8.10;6.70;;;;;;;11.82;69.54;99403.27;104843;1267;59375;-70
2023/04/14 03:58:33;;;;;;;7.90;7.10;;;;;;;11.82;69.54;99408.89;104948;1267;65189;-70
2023/04/14 04:01:02;;;;;;;8.30;7.30;;;;;;;11.83;69.49;99410.55;104793;1271;59747;-70
2023/04/14 04:03:33;;;;;;;8.10;7.20;;;;;;;11.83;69.46;99413.59;104819;1267;65833;-70
2023/04/14 04:06:03;;;;;;;9.30;7.30;;;;;;;11.83;69.46;99417.45;104805;1269;59609;-68
2023/04/14 04:08:31;;;;;;;7.80;7.00;;;;;;;11.83;69.43;99421.30;105037;1265;59666;-70
2023/04/14 04:10:59;;;;;;;9.60;6.90;;;;;;;11.84;69.32;99424.69;105010;1269;65838;-70
2023/04/14 04:13:29;;;;;;;7.90;6.50;;;;;;;11.86;69.28;99428.59;104765;1271;60298;-70
2023/04/14 04:15:57;;;;;;;6.90;6.20;;;;;;;11.87;69.36;99424.58;104623;1264;65569;-72
2023/04/14 04:18:28;;;;;;;8.10;7.00;;;;;;;11.88;69.31;99423.99;104814;1264;59727;-73
2023/04/14 04:20:56;;;;;;;7.30;6.60;;;;;;;11.89;69.34;99420.16;104647;1269;60161;-69
2023/04/14 04:23:26;;;;;;;8.30;6.70;;;;;;;11.91;69.28;99418.42;104734;1266;65067;-69
2023/04/14 04:25:54;;;;;;;7.40;6.20;;;;;;;11.92;69.23;99423.23;104814;1269;59669;-69
2023/04/14 04:28:41;;;;;;;10.40;6.50;;;;;;;11.91;69.23;99425.20;104821;1266;65326;-72
2023/04/14 04:31:10;;;;;;;8.00;6.30;;;;;;;11.91;69.21;99425.90;104857;1272;59672;-71
2023/04/14 04:33:39;;;;;;;7.50;6.30;;;;;;;11.91;69.08;99432.67;104806;1267;59669;-70
2023/04/14 04:36:12;;;;;;;9.40;6.20;;;;;;;11.91;69.19;99438.14;104816;1267;65987;-72
2023/04/14 04:38:42;;;;;;;7.60;6.10;;;;;;;11.91;69.27;99434.59;104887;1272;59799;-70
2023/04/14 04:41:22;;;;;;;7.30;6.10;;;;;;;11.89;69.12;99436.35;104781;1272;64550;-73
2023/04/14 04:43:51;;;;;;;6.50;5.80;;;;;;;11.88;69.01;99438.02;104758;1271;59737;-69
2023/04/14 04:46:41;;;;;;;7.40;6.10;;;;;;;11.88;69.07;99436.27;104829;1266;59848;-78
2023/04/14 04:49:12;;;;;;;8.50;6.30;;;;;;;11.88;69.06;99437.33;104825;1269;65891;-71
2023/04/14 04:51:42;;;;;;;9.10;6.10;;;;;;;11.89;69.01;99437.96;104849;1265;59712;-69
2023/04/14 04:54:11;;;;;;;6.70;5.90;;;;;;;11.90;68.99;99438.56;104736;1267;65887;-70
2023/04/14 04:56:39;;;;;;;6.70;5.70;;;;;;;11.91;69.00;99440.02;104796;1266;59537;-70
2023/04/14 04:59:08;;;;;;;6.30;5.70;;;;;;;11.91;68.97;99442.70;104770;1269;59643;-69
2023/04/14 05:01:38;;;;;;;10.20;6.60;;;;;;;11.89;68.83;99443.59;104794;1269;65925;-70
2023/04/14 05:04:07;;;;;;;7.70;6.10;;;;;;;11.88;68.83;99445.34;104936;1267;59650;-70
2023/04/14 05:06:38;;;;;;;7.50;6.30;;;;;;;11.88;68.67;99445.19;104959;1267;65677;-71
2023/04/14 05:09:11;;;;;;;8.80;6.90;;;;;;;11.87;68.69;99448.80;104827;1267;59640;-69
2023/04/14 05:11:40;;;;;;;9.30;6.90;;;;;;;11.86;68.70;99447.21;104901;1267;59725;-72
2023/04/14 05:14:09;;;;;;;7.40;6.60;;;;;;;11.86;68.70;99448.80;104917;1272;65621;-71
2023/04/14 05:16:38;;;;;;;8.30;6.60;;;;;;;11.87;68.76;99448.75;105001;1269;60034;-72
2023/04/14 05:19:16;;;;;;;9.10;6.80;;;;;;;11.88;68.68;99453.96;104793;1267;65583;-74
2023/04/14 05:21:49;;;;;;;7.30;6.30;;;;;;;11.88;68.66;99452.55;104673;1266;59765;-69
2023/04/14 05:24:17;;;;;;;9.10;6.60;;;;;;;11.88;68.67;99454.50;104987;1266;61216;-69
2023/04/14 05:26:51;;;;;;;7.10;6.30;;;;;;;11.88;68.62;99461.73;104885;1265;63435;-71
2023/04/14 05:29:40;;;;;;;7.30;6.20;;;;;;;11.87;68.56;99472.05;105235;1266;59738;-69
2023/04/14 05:32:09;;;;;;;9.70;6.80;;;;;;;11.85;68.43;99478.36;104877;1267;65602;-69
2023/04/14 05:34:38;;;;;;;9.20;6.90;;;;;;;11.85;68.46;99479.65;105036;1267;59748;-69
2023/04/14 05:37:06;;;;;;;10.90;7.30;;;;;;;11.84;68.42;99482.36;104913;1265;59670;-68
2023/04/14 05:39:35;;;;;;;10.50;7.00;;;;;;;11.85;68.27;99483.68;105107;1269;66059;-71
2023/04/14 05:42:04;;;;;;;8.70;6.70;;;;;;;11.86;68.16;99483.95;105112;1266;60114;-71
2023/04/14 05:44:33;;;;;;;8.60;6.40;;;;;;;11.87;68.06;99484.04;105490;1254;65512;-69
2023/04/14 05:47:01;;;;;;;8.20;7.00;;;;;;;11.87;68.14;99487.23;105668;1254;60820;-69
2023/04/14 05:49:30;;;;;;;9.30;6.90;;;;;;;11.87;68.05;99486.70;105618;1256;59791;-69
2023/04/14 05:51:59;;;;;;;8.30;6.70;;;;;;;11.85;68.04;99488.61;105725;1254;65842;-68
2023/04/14 05:54:31;;;;;;;8.80;6.70;;;;;;;11.83;68.08;99490.59;105812;1254;59780;-70
2023/04/14 05:56:59;;;;;;;8.50;6.90;;;;;;;11.82;67.99;99493.13;105509;1259;65577;-69
2023/04/14 05:59:29;;;;;;;10.90;6.90;;;;;;;11.82;68.01;99493.85;105657;1254;59641;-69
2023/04/14 06:02:01;;;;;;;7.80;6.60;;;;;;;11.82;68.00;99496.40;105564;1254;59727;-70
2023/04/14 06:04:30;;;;;;;8.00;7.00;;;;;;;11.85;67.88;99499.06;105799;1254;65803;-68
2023/04/14 06:07:02;;;;;;;9.70;6.80;;;;;;;11.83;67.87;99502.72;105940;1261;59752;-69
2023/04/14 06:09:48;;;;;;;7.00;6.10;;;;;;;11.84;67.89;99503.92;105673;1254;65444;-69
2023/04/14 06:12:21;;;;;;;9.60;7.00;;;;;;;11.83;67.86;99506.46;105464;1259;59595;-69
2023/04/14 06:14:52;;;;;;;8.20;6.80;;;;;;;11.83;67.89;99511.92;105626;1258;59503;-69
2023/04/14 06:17:25;;;;;;;9.40;7.00;;;;;;;11.83;67.88;99516.02;105597;1258;66214;-69
2023/04/14 06:19:53;;;;;;;10.20;7.70;;;;;;;11.83;67.96;99519.55;105755;1254;59909;-69
2023/04/14 06:22:21;;;;;;;9.60;7.20;;;;;;;11.83;67.82;99517.91;105687;1254;65529;-70
2023/04/14 06:24:50;;;;;;;11.00;6.80;;;;;;;11.84;67.86;99520.32;105697;1257;60769;-68
2023/04/14 06:27:20;;;;;;;8.60;6.60;;;;;;;11.85;67.80;99520.95;105339;1260;59669;-69
2023/04/14 06:29:51;;;;;;;8.70;6.60;;;;;;;11.85;67.93;99525.70;105437;1257;66335;-70
2023/04/14 06:32:19;;;;;;;8.30;6.80;;;;;;;11.83;67.84;99525.52;105411;1262;59720;-74
2023/04/14 06:34:50;;;;;;;8.40;6.60;;;;;;;11.84;67.79;99529.52;105894;1254;65764;-73
2023/04/14 06:37:20;;;;;;;7.90;6.50;;;;;;;11.85;67.83;99532.34;105423;1254;59626;-70
2023/04/14 06:39:49;;;;;;;7.90;6.70;;;;;;;11.87;67.66;99532.75;105835;1254;59749;-69
2023/04/14 06:42:17;;;;;;;7.70;6.60;;;;;;;11.87;67.72;99533.80;105923;1254;65655;-69
2023/04/14 06:44:46;;;;;;;9.30;7.20;;;;;;;11.87;67.73;99534.70;105393;1258;59690;-70
2023/04/14 06:47:19;;;;;;;9.10;7.20;;;;;;;11.87;67.74;99536.41;105411;1254;65647;-71
2023/04/14 06:49:49;;;;;;;8.50;6.70;;;;;;;11.90;67.70;99536.99;105221;1254;59679;-68
2023/04/14 06:52:18;;;;;;;7.80;6.70;;;;;;;11.94;67.54;99541.73;105730;1254;60229;-70
2023/04/14 06:54:47;;;;;;;8.60;6.60;;;;;;;11.94;67.71;99544.77;105407;1257;62942;-69
2023/04/14 06:57:16;;;;;;;8.40;6.80;;;;;;;11.92;67.69;99543.14;105838;1259;60110;-68
2023/04/14 06:59:50;;;;;;;8.20;6.30;;;;;;;11.93;67.77;99542.48;106013;1254;64594;-69
2023/04/14 07:02:18;;;;;;;7.20;6.40;;;;;;;11.95;67.80;99543.89;105895;1254;59800;-66
2023/04/14 07:04:47;;;;;;;10.60;6.60;;;;;;;11.98;67.78;99548.04;105746;1259;59634;-69
2023/04/14 07:07:18;;;;;;;8.00;6.60;;;;;;;11.99;67.82;99549.83;105818;1254;64892;-71
2023/04/14 07:09:46;;;;;;;7.90;7.10;;;;;;;12.01;67.73;99552.16;105990;1257;59792;-71
2023/04/14 07:12:16;;;;;;;8.10;7.20;;;;;;;12.01;67.74;99550.00;105729;1258;65407;-69
2023/04/14 07:14:50;;;;;;;9.60;6.70;;;;;;;12.01;67.76;99553.73;105471;1260;59635;-68
2023/04/14 07:17:19;;;;;;;7.50;6.70;;;;;;;12.02;67.81;99556.04;105821;1257;59576;-71
2023/04/14 07:19:48;;;;;;;8.30;7.20;;;;;;;12.03;67.93;99556.20;105837;1259;66046;-70
2023/04/14 07:22:16;;;;;;;10.00;7.40;;;;;;;12.03;67.87;99560.34;105681;1258;59946;-68
2023/04/14 07:24:45;;;;;;;9.00;7.20;;;;;;;12.04;67.97;99559.75;105797;1258;65149;-70
2023/04/14 07:27:15;;;;;;;8.10;7.00;;;;;;;12.06;68.11;99563.52;105527;1257;60837;-72
2023/04/14 07:29:44;;;;;;;9.10;7.60;;;;;;;12.07;68.07;99565.15;105794;1259;59519;-71
2023/04/14 07:32:13;;;;;;;10.00;7.80;;;;;;;12.09;68.19;99571.19;106067;1254;65949;-73
2023/04/14 07:34:42;;;;;;;11.40;7.70;;;;;;;12.11;68.22;99569.41;105718;1260;59939;-73
2023/04/14 07:37:11;;;;;;;9.80;7.80;;;;;;;12.12;68.17;99569.98;106292;1257;64625;-72
2023/04/14 07:39:40;;;;;;;9.40;7.80;;;;;;;12.14;68.30;99570.06;106338;1259;61255;-70
2023/04/14 07:42:10;;;;;;;10.00;7.80;;;;;;;12.17;68.44;99570.70;106317;1258;59542;-71
2023/04/14 07:44:43;;;;;;;9.90;8.00;;;;;;;12.20;68.41;99574.14;105574;1259;66026;-70
2023/04/14 07:47:12;;;;;;;13.20;8.00;;;;;;;12.22;68.51;99575.14;106037;1258;59633;-70
2023/04/14 07:49:40;;;;;;;10.10;8.30;;;;;;;12.25;68.57;99574.60;105564;1255;65612;-69
2023/04/14 07:52:09;;;;;;;8.90;8.00;;;;;;;12.28;68.52;99576.13;105669;1254;60425;-70
2023/04/14 07:54:38;;;;;;;10.40;9.00;;;;;;;12.28;68.53;99579.27;105688;1254;60427;-69
2023/04/14 07:57:08;;;;;;;9.40;8.00;;;;;;;12.29;68.63;99578.69;105547;1254;66578;-73
2023/04/14 07:59:41;;;;;;;11.10;8.80;;;;;;;12.31;68.64;99577.24;106037;1254;60555;-71
2023/04/14 08:02:10;;;;;;;12.00;9.40;;;;;;;12.32;68.62;99577.12;105938;1257;65566;-72
2023/04/14 08:04:38;;;;;;;11.90;9.80;;;;;;;12.34;68.77;99578.55;105762;1257;60438;-70
2023/04/14 08:07:07;;;;;;;13.00;10.20;;;;;;;12.37;68.88;99581.59;105636;1254;60572;-70
2023/04/14 08:09:35;;;;;;;14.50;10.80;;;;;;;12.39;68.83;99582.51;106158;1254;65647;-73
2023/04/14 08:19:39;;;;;;;9.60;8.60;;;;;;;12.46;68.82;99587.55;102527;1291;600704;-72
2023/04/14 08:22:08;;;;;;;8.70;7.70;;;;;;;12.45;68.81;99588.36;104998;1267;59334;-73
2023/04/14 08:24:40;;;;;;;9.10;8.10;;;;;;;12.48;68.92;99591.83;104935;1264;59295;-69
2023/04/14 08:27:08;;;;;;;8.70;7.70;;;;;;;12.49;68.99;99590.44;104689;1269;64968;-70
2023/04/14 08:29:37;;;;;;;9.30;7.90;;;;;;;12.52;69.02;99589.45;104979;1269;61071;-70
2023/04/14 08:32:05;;;;;;;9.60;8.40;;;;;;;12.54;69.01;99589.40;105182;1266;64547;-68
2023/04/14 08:34:34;;;;;;;9.80;7.50;;;;;;;12.58;69.08;99597.30;105320;1263;59338;-73
2023/04/14 08:37:02;;;;;;;10.10;8.60;;;;;;;12.62;69.06;99600.23;104874;1277;59238;-70
2023/04/14 08:39:31;;;;;;;10.90;8.40;;;;;;;12.66;69.17;99603.25;105227;1265;65320;-69
2023/04/14 08:41:59;;;;;;;10.30;9.00;;;;;;;12.69;69.25;99603.67;105136;1267;59727;-68
2023/04/14 08:44:28;;;;;;;9.40;8.00;;;;;;;12.73;69.15;99602.84;104805;1265;65512;-72
2023/04/14 08:46:57;;;;;;;13.10;11.80;;;;;;;12.77;69.06;99599.63;105136;1263;59669;-73
2023/04/14 08:49:26;;;;;;;10.20;9.10;;;;;;;12.78;69.10;99602.39;105378;1269;61257;-72
2023/04/14 08:51:54;;;;;;;10.40;9.30;;;;;;;12.79;69.03;99602.76;105201;1264;65132;-74
2023/04/14 08:54:22;;;;;;;11.20;9.20;;;;;;;12.80;69.01;99607.39;105565;1269;59689;-71
2023/04/14 08:56:51;;;;;;;9.10;8.20;;;;;;;12.81;68.89;99611.08;105084;1268;65255;-71
2023/04/14 08:59:20;;;;;;;10.10;8.10;;;;;;;12.81;68.76;99616.58;104870;1262;59784;-70
2023/04/14 09:01:49;;;;;;;9.30;8.30;;;;;;;12.81;68.62;99620.55;105343;1264;59771;-71
2023/04/14 09:04:19;;;;;;;10.80;9.20;;;;;;;12.82;68.66;99623.84;105028;1267;65919;-71
2023/04/14 09:06:47;;;;;;;11.00;9.00;;;;;;;12.82;68.63;99624.20;104775;1263;59762;-70
2023/04/14 09:09:15;;;;;;;12.20;9.20;;;;;;;12.82;68.55;99626.33;104936;1264;65383;-70
2023/04/14 09:11:45;;;;;;;9.80;8.70;;;;;;;12.82;68.63;99627.02;105246;1269;59592;-71
2023/04/14 09:14:14;;;;;;;9.40;8.40;;;;;;;12.83;68.63;99629.71;108725;1262;57456;-69
2023/04/14 09:16:43;;;;;;;9.20;8.20;;;;;;;12.84;68.59;99629.84;108675;1262;64042;-69
2023/04/14 09:19:14;;;;;;;9.70;8.60;;;;;;;12.83;68.52;99633.81;108748;1266;59778;-80
2023/04/14 09:21:42;;;;;;;9.50;8.40;;;;;;;12.82;68.45;99637.79;108687;1263;63731;-81
2023/04/14 09:24:28;;;;;;;11.40;8.20;;;;;;;12.82;68.57;99637.26;108649;1262;57554;-78
2023/04/14 09:27:04;;;;;;;10.70;8.30;;;;;;;12.83;68.50;99639.27;108686;1264;57362;-75
2023/04/14 09:29:32;;;;;;;9.90;8.60;;;;;;;12.84;68.26;99643.14;108629;1266;64400;-75
2023/04/14 09:32:03;;;;;;;11.30;8.40;;;;;;;12.83;68.17;99645.09;108804;1266;59607;-75
2023/04/14 09:34:33;;;;;;;10.10;8.30;;;;;;;12.84;68.21;99646.10;108759;1265;63765;-78
2023/04/14 09:37:07;;;;;;;10.30;8.60;;;;;;;12.84;68.16;99651.37;108713;1265;57404;-73
2023/04/14 09:39:49;;;;;;;10.50;8.40;;;;;;;12.84;68.14;99651.58;108715;1265;57306;-74
2023/04/14 09:42:18;;;;;;;10.30;8.90;;;;;;;12.84;68.04;99652.30;109168;1257;64708;-74
2023/04/14 09:44:56;;;;;;;9.70;8.30;;;;;;;12.84;68.08;99650.70;109130;1257;59185;-74
2023/04/14 09:47:25;;;;;;;11.20;8.50;;;;;;;12.85;68.00;99653.30;109013;1257;65102;-75
2023/04/14 09:49:56;;;;;;;9.60;8.60;;;;;;;12.85;68.04;99653.90;109084;1257;57334;-75
2023/04/14 09:52:43;;;;;;;10.90;8.90;;;;;;;12.86;68.06;99653.66;109093;1257;57383;-74
2023/04/14 09:55:16;;;;;;;12.20;8.90;;;;;;;12.86;67.96;99655.66;109166;1257;64368;-74
2023/04/14 09:57:50;;;;;;;10.40;8.50;;;;;;;12.85;67.83;99660.13;109152;1257;58211;-74
2023/04/14 10:00:20;;;;;;;11.50;10.30;;;;;;;12.86;67.90;99662.73;109151;1257;65193;-75
2023/04/14 10:03:13;;;;;;;12.10;9.50;;;;;;;12.87;68.01;99667.69;109111;1262;57330;-74
2023/04/14 10:05:46;;;;;;;11.30;9.60;;;;;;;12.89;67.97;99665.54;109161;1257;57400;-74
2023/04/14 10:08:14;;;;;;;12.90;11.20;;;;;;;12.95;68.05;99670.46;109054;1257;66135;-74
2023/04/14 10:10:42;;;;;;;13.10;10.50;;;;;;;13.03;68.15;99670.19;109168;1257;59111;-75
2023/04/14 10:13:17;;;;;;;11.60;9.90;;;;;;;13.12;68.20;99669.23;109093;1257;65050;-73
2023/04/14 10:15:45;;;;;;;13.40;11.80;;;;;;;13.22;68.19;99665.05;109104;1257;57281;-74
2023/04/14 10:18:14;;;;;;;13.30;11.60;;;;;;;13.31;68.16;99665.34;109107;1257;57433;-74
2023/04/14 10:20:44;;;;;;;16.20;11.60;;;;;;;13.40;68.15;99665.16;109133;1257;65551;-74
2023/04/14 10:23:12;;;;;;;12.80;11.40;;;;;;;13.47;67.99;99664.40;109176;1257;58420;-74
2023/04/14 10:25:40;;;;;;;14.20;12.40;;;;;;;13.54;67.88;99663.52;109077;1260;64749;-74
2023/04/14 10:28:09;;;;;;;13.80;12.40;;;;;;;13.61;67.68;99664.58;109125;1257;57266;-75
2023/04/14 10:30:38;;;;;;;12.60;11.20;;;;;;;13.66;67.46;99662.64;109127;1257;57277;-75
2023/04/14 10:33:06;;;;;;;13.90;10.90;;;;;;;13.73;67.32;99663.54;109048;1257;65076;-75
2023/04/14 10:35:39;;;;;;;15.70;11.50;;;;;;;13.81;67.10;99664.96;109062;1257;59097;-75
2023/04/14 10:38:07;;;;;;;13.50;9.90;;;;;;;13.88;66.84;99673.45;109143;1257;65005;-77
2023/04/14 10:40:46;;;;;;;13.70;10.80;;;;;;;13.94;66.44;99679.02;109148;1257;57371;-76
2023/04/14 10:43:14;;;;;;;12.30;9.40;;;;;;;14.01;66.28;99681.83;109185;1257;57299;-77
2023/04/14 10:45:55;;;;;;;9.60;8.60;;;;;;;14.07;66.06;99682.98;109134;1257;65404;-76
2023/04/14 10:48:46;;;;;;;11.50;9.20;;;;;;;14.12;65.86;99687.77;109092;1257;58430;-75
2023/04/14 10:51:16;;;;;;;10.00;8.70;;;;;;;14.15;65.45;99691.63;109156;1257;65037;-75
2023/04/14 10:53:54;;;;;;;10.30;8.70;;;;;;;14.17;65.01;99692.70;109126;1257;57270;-75
2023/04/14 10:56:23;;;;;;;10.50;8.50;;;;;;;14.19;65.01;99691.65;109114;1258;57322;-75
2023/04/14 10:58:56;;;;;;;11.40;8.50;;;;;;;14.25;64.91;99696.08;109080;1257;65380;-75
2023/04/14 11:01:34;;;;;;;11.50;8.70;;;;;;;14.31;64.78;99699.55;109164;1257;59389;-75
2023/04/14 11:04:18;;;;;;;10.70;8.40;;;;;;;14.36;64.61;99701.64;109089;1257;65016;-77
2023/04/14 11:06:51;;;;;;;12.00;8.60;;;;;;;14.39;64.30;99705.09;109077;1257;57293;-73
2023/04/14 11:09:36;;;;;;;10.60;8.50;;;;;;;14.42;64.10;99708.18;109200;1257;57262;-75
2023/04/14 11:12:23;;;;;;;11.70;8.60;;;;;;;14.44;63.98;99716.95;109170;1257;65327;-76
2023/04/14 11:15:02;;;;;;;12.50;8.30;;;;;;;14.43;63.63;99722.73;109147;1257;59531;-74
2023/04/14 11:17:36;;;;;;;10.80;8.40;;;;;;;14.35;63.47;99723.04;109126;1257;64043;-74
2023/04/14 11:20:24;;;;;;;9.90;8.40;;;;;;;14.31;63.36;99722.73;109125;1257;57334;-73
2023/04/14 11:22:58;;;;;;;10.80;8.70;;;;;;;14.28;63.32;99726.96;109176;1257;57296;-74
2023/04/14 11:25:26;;;;;;;9.70;8.10;;;;;;;14.24;63.27;99725.23;109158;1257;65177;-74
2023/04/14 11:27:55;;;;;;;11.00;8.80;;;;;;;14.20;63.31;99725.52;109131;1257;59536;-77
2023/04/14 11:30:26;;;;;;;10.10;8.50;;;;;;;14.18;63.36;99727.73;109142;1257;63674;-73
2023/04/14 11:32:56;;;;;;;10.00;8.60;;;;;;;14.17;63.42;99733.46;109209;1257;57260;-75
2023/04/14 11:35:25;;;;;;;10.90;8.80;;;;;;;14.15;63.45;99730.61;109148;1257;57387;-74
2023/04/14 11:37:57;;;;;;;10.20;8.80;;;;;;;14.22;63.31;99726.48;109124;1257;65014;-74
2023/04/14 11:40:26;;;;;;;11.00;8.80;;;;;;;14.25;63.28;99726.73;109237;1257;58257;-75
2023/04/14 11:42:55;;;;;;;9.40;8.40;;;;;;;14.28;63.29;99723.09;109101;1257;65255;-77
2023/04/14 11:45:27;;;;;;;10.20;9.00;;;;;;;14.31;63.30;99720.61;109099;1257;57297;-75
2023/04/14 11:48:03;;;;;;;15.00;8.70;;;;;;;14.38;63.43;99718.83;109229;1257;57384;-75
2023/04/14 11:50:33;;;;;;;10.70;8.40;;;;;;;14.46;63.32;99715.18;109146;1257;64123;-77
2023/04/14 11:53:06;;;;;;;9.20;8.30;;;;;;;14.58;63.22;99718.88;109241;1257;59378;-75
2023/04/14 11:55:35;;;;;;;;;;;;;;;14.73;63.25;99720.29;109070;1257;65064;-75